Time;durP1;ratioP1;P1;durP2;ratioP2;P2;SDS_P1;SDS_P2;PMS_P1;PMS_P2;Temp;Humidity;BMP_temperature;BMP_pressure;BME280_temperature;BME280_humidity;BME280_pressure;Samples;Min_cycle;Max_cycle;Signal;HPM_P1;HPM_P2
2020/12/15 00:01:54;;;;;;;2.65;1.75;;;13.30;99.90;;;;;;5073560;28;20203;-78
2020/12/15 00:04:22;;;;;;;4.05;1.40;;;13.40;99.90;;;;;;5073215;28;20202;-78
2020/12/15 00:06:48;;;;;;;6.28;1.50;;;13.40;99.90;;;;;;5073353;28;20202;-78
2020/12/15 00:09:14;;;;;;;3.75;1.67;;;13.40;99.90;;;;;;5073335;28;20205;-78
2020/12/15 00:11:41;;;;;;;3.90;1.50;;;13.30;99.90;;;;;;5073196;28;20198;-79
2020/12/15 00:14:07;;;;;;;2.70;1.75;;;13.40;99.90;;;;;;5073136;28;20195;-78
2020/12/15 00:16:33;;;;;;;2.83;1.60;;;13.30;99.90;;;;;;5073321;28;20665;-78
2020/12/15 00:19:00;;;;;;;2.95;1.55;;;13.20;99.90;;;;;;5073211;28;20194;-79
2020/12/15 00:21:28;;;;;;;2.47;1.80;;;13.40;99.90;;;;;;5073066;28;20221;-78
2020/12/15 00:23:55;;;;;;;2.50;1.40;;;13.30;99.90;;;;;;5072461;28;20288;-78
2020/12/15 00:26:23;;;;;;;3.05;1.90;;;13.40;99.90;;;;;;5073249;28;20202;-79
2020/12/15 00:28:50;;;;;;;2.78;1.80;;;13.10;99.90;;;;;;5073078;28;20206;-79
2020/12/15 00:31:17;;;;;;;2.35;1.38;;;13.10;99.90;;;;;;5072966;28;20547;-79
2020/12/15 00:33:44;;;;;;;2.65;1.50;;;12.90;99.90;;;;;;5073062;28;20199;-78
2020/12/15 00:36:17;;;;;;;3.30;1.75;;;12.90;99.90;;;;;;5072504;28;20649;-79
2020/12/15 00:38:44;;;;;;;1.95;1.42;;;12.90;99.90;;;;;;5072840;28;20229;-78
2020/12/15 00:41:11;;;;;;;2.78;1.88;;;12.80;99.90;;;;;;5072869;28;20645;-78
2020/12/15 00:43:37;;;;;;;2.00;1.50;;;12.80;99.90;;;;;;5072941;28;20198;-78
2020/12/15 00:46:03;;;;;;;3.72;1.77;;;12.90;99.90;;;;;;5073211;28;20555;-79
2020/12/15 00:48:29;;;;;;;2.92;1.70;;;12.90;99.90;;;;;;5073593;28;20202;-78
2020/12/15 00:50:56;;;;;;;3.13;1.98;;;13.10;99.90;;;;;;5076698;28;20201;-79
2020/12/15 00:53:22;;;;;;;3.85;2.15;;;13.10;99.90;;;;;;5076711;28;20557;-78
2020/12/15 00:55:49;;;;;;;4.85;1.73;;;13.10;99.90;;;;;;5076683;28;20233;-78
2020/12/15 00:58:15;;;;;;;2.50;1.60;;;13.00;99.90;;;;;;5076723;28;20233;-78
2020/12/15 01:00:41;;;;;;;2.50;1.67;;;13.10;99.90;;;;;;5076710;28;20208;-79
2020/12/15 01:03:08;;;;;;;2.60;1.85;;;13.20;99.90;;;;;;5076417;28;20198;-78
2020/12/15 01:05:34;;;;;;;3.15;1.90;;;13.10;99.90;;;;;;5076570;28;20202;-78
2020/12/15 01:08:00;;;;;;;2.55;1.90;;;13.10;99.90;;;;;;5076650;28;20194;-79
2020/12/15 01:10:26;;;;;;;2.83;1.80;;;13.20;99.90;;;;;;5076533;28;20209;-79
2020/12/15 01:12:53;;;;;;;7.25;2.00;;;13.20;99.90;;;;;;5076421;28;20195;-78
2020/12/15 01:15:19;;;;;;;3.20;2.13;;;13.30;99.90;;;;;;5076323;28;20205;-78
2020/12/15 01:17:46;;;;;;;4.20;1.70;;;13.30;99.90;;;;;;5076348;28;20233;-78
2020/12/15 01:20:12;;;;;;;2.03;1.50;;;13.10;99.90;;;;;;5076395;28;20197;-79
2020/12/15 01:22:38;;;;;;;2.95;1.77;;;13.10;99.90;;;;;;5076235;28;20276;-78
2020/12/15 01:25:04;;;;;;;4.45;2.38;;;12.90;99.90;;;;;;5076083;28;20214;-79
2020/12/15 01:27:31;;;;;;;1.85;1.65;;;12.80;99.90;;;;;;5076557;28;20527;-78
2020/12/15 01:29:58;;;;;;;2.10;1.60;;;12.60;99.90;;;;;;5075965;28;20194;-79
2020/12/15 01:32:25;;;;;;;1.70;1.45;;;12.60;99.90;;;;;;5075897;28;20217;-78
2020/12/15 01:34:51;;;;;;;4.13;1.55;;;12.60;99.90;;;;;;5075984;28;20201;-79
2020/12/15 01:37:17;;;;;;;3.75;1.90;;;12.50;99.90;;;;;;5075780;28;20225;-79
2020/12/15 01:39:43;;;;;;;1.77;1.67;;;12.50;99.90;;;;;;5076113;28;20198;-79
2020/12/15 01:42:10;;;;;;;2.30;1.63;;;12.50;99.90;;;;;;5076177;28;20193;-78
2020/12/15 01:44:36;;;;;;;1.90;1.65;;;12.30;99.90;;;;;;5075169;28;20194;-79
2020/12/15 01:47:04;;;;;;;3.35;2.10;;;12.30;99.90;;;;;;5075906;28;20198;-78
2020/12/15 01:49:30;;;;;;;4.03;1.73;;;12.30;99.90;;;;;;5075966;28;20206;-78
2020/12/15 01:51:57;;;;;;;3.00;2.03;;;12.30;99.90;;;;;;5075582;28;20198;-78
2020/12/15 01:54:24;;;;;;;1.88;1.65;;;12.30;99.90;;;;;;5075255;28;20234;-78
2020/12/15 01:56:50;;;;;;;2.10;1.90;;;12.20;99.90;;;;;;5075062;28;20194;-79
2020/12/15 01:59:16;;;;;;;2.10;1.90;;;12.20;99.90;;;;;;5075723;28;20664;-79
2020/12/15 02:01:44;;;;;;;2.70;2.30;;;12.10;99.90;;;;;;5074438;28;20201;-79
2020/12/15 02:04:11;;;;;;;2.85;1.83;;;12.10;99.90;;;;;;5075642;28;20194;-79
2020/12/15 02:06:38;;;;;;;4.68;2.42;;;12.20;99.90;;;;;;5075548;28;20198;-79
2020/12/15 02:09:06;;;;;;;1.80;1.70;;;12.20;99.90;;;;;;5075439;28;20202;-78
2020/12/15 02:14:54;;;;;;;1.98;1.65;;;11.90;99.90;;;;;;5075481;28;20264;-78
2020/12/15 02:17:20;;;;;;;2.30;1.88;;;11.80;99.90;;;;;;5075431;28;20215;-79
2020/12/15 02:19:47;;;;;;;4.30;1.98;;;11.90;99.90;;;;;;5075291;28;20538;-78
2020/12/15 02:22:14;;;;;;;1.98;1.85;;;11.90;99.90;;;;;;5075241;28;20213;-78
2020/12/15 02:24:40;;;;;;;2.13;1.92;;;11.80;99.90;;;;;;5075089;28;20241;-79
2020/12/15 02:27:07;;;;;;;2.63;2.42;;;11.80;99.90;;;;;;5075061;28;20202;-79
2020/12/15 02:29:33;;;;;;;1.83;1.70;;;11.80;99.90;;;;;;5075152;28;20560;-78
2020/12/15 02:31:59;;;;;;;2.10;1.90;;;11.90;99.90;;;;;;5075060;28;20190;-78
2020/12/15 02:34:26;;;;;;;2.15;1.90;;;11.90;99.90;;;;;;5074944;28;20194;-78
2020/12/15 02:36:52;;;;;;;5.30;2.15;;;11.80;99.90;;;;;;5074814;28;20221;-79
2020/12/15 02:39:20;;;;;;;12.13;2.58;;;11.90;99.90;;;;;;5074923;28;20202;-79
2020/12/15 02:41:52;;;;;;;1.60;1.50;;;11.90;99.90;;;;;;5074840;28;20198;-79
2020/12/15 02:44:19;;;;;;;2.47;2.28;;;12.00;99.90;;;;;;5074705;28;20190;-78
2020/12/15 02:46:45;;;;;;;2.25;2.00;;;12.00;99.90;;;;;;5074750;28;20528;-78
2020/12/15 02:49:11;;;;;;;2.45;2.10;;;12.00;99.90;;;;;;5074833;28;20202;-79
2020/12/15 02:51:37;;;;;;;2.03;1.90;;;11.90;99.90;;;;;;5074602;28;20194;-78
2020/12/15 02:54:04;;;;;;;2.22;2.03;;;11.90;99.90;;;;;;5074364;28;20571;-79
2020/12/15 02:56:31;;;;;;;2.72;2.53;;;12.00;99.90;;;;;;5074506;28;20277;-79
2020/12/15 02:58:57;;;;;;;2.78;2.45;;;12.10;99.90;;;;;;5074376;28;20226;-79
2020/12/15 03:01:23;;;;;;;4.03;2.40;;;12.20;99.90;;;;;;5074447;28;20190;-78
2020/12/15 03:03:49;;;;;;;2.70;2.25;;;12.20;99.90;;;;;;5074433;28;20225;-79
2020/12/15 03:06:15;;;;;;;2.40;2.20;;;12.10;99.90;;;;;;5074174;28;20201;-79
2020/12/15 03:08:41;;;;;;;2.78;2.47;;;12.00;99.90;;;;;;5074420;28;20213;-79
2020/12/15 03:11:08;;;;;;;2.78;2.58;;;12.10;99.90;;;;;;5073928;28;20194;-79
2020/12/15 03:13:35;;;;;;;2.83;2.63;;;12.00;99.90;;;;;;5074227;28;20649;-79
2020/12/15 03:16:01;;;;;;;4.43;2.72;;;12.00;99.90;;;;;;5074444;28;20195;-79
2020/12/15 03:18:28;;;;;;;2.53;2.30;;;12.10;99.90;;;;;;5074029;28;20233;-79
2020/12/15 03:20:54;;;;;;;7.05;2.95;;;12.00;99.90;;;;;;5073933;28;20279;-78
2020/12/15 03:23:23;;;;;;;2.67;2.00;;;12.00;99.90;;;;;;5073740;28;20210;-79
2020/12/15 03:25:52;;;;;;;2.88;2.38;;;12.00;99.90;;;;;;5073938;28;20197;-79
2020/12/15 03:28:20;;;;;;;2.67;2.35;;;12.10;99.90;;;;;;5073996;28;20201;-78
2020/12/15 03:30:47;;;;;;;2.67;2.47;;;12.10;99.90;;;;;;5073860;28;20198;-79
2020/12/15 03:33:13;;;;;;;2.53;1.98;;;12.20;99.90;;;;;;5073757;28;20190;-79
2020/12/15 03:35:40;;;;;;;3.65;3.25;;;12.10;99.90;;;;;;5073790;28;20575;-79
2020/12/15 03:38:06;;;;;;;2.38;2.17;;;12.20;99.90;;;;;;5073704;28;20312;-78
2020/12/15 03:40:32;;;;;;;2.67;2.25;;;12.20;99.90;;;;;;5074075;28;20194;-79
2020/12/15 03:42:58;;;;;;;6.55;2.53;;;12.20;99.90;;;;;;5073368;28;20206;-79
2020/12/15 03:45:25;;;;;;;3.95;2.60;;;12.20;99.90;;;;;;5073301;28;20205;-79
2020/12/15 03:47:52;;;;;;;3.90;2.30;;;12.30;99.90;;;;;;5073613;28;20539;-79
2020/12/15 03:50:18;;;;;;;2.63;2.40;;;12.30;99.90;;;;;;5073522;28;20213;-78
2020/12/15 03:52:44;;;;;;;3.00;2.47;;;12.30;99.90;;;;;;5073479;28;20198;-79
2020/12/15 03:55:10;;;;;;;4.35;2.80;;;12.30;99.90;;;;;;5073141;28;20226;-79
2020/12/15 03:57:37;;;;;;;3.10;2.38;;;12.30;99.90;;;;;;5073501;28;20237;-79
2020/12/15 04:00:04;;;;;;;2.80;2.60;;;12.20;99.90;;;;;;5073605;28;20205;-78
2020/12/15 04:02:31;;;;;;;5.05;3.17;;;12.30;99.90;;;;;;5073406;28;20199;-79
2020/12/15 04:04:58;;;;;;;5.18;3.30;;;12.30;99.90;;;;;;5073420;28;20198;-79
2020/12/15 04:07:24;;;;;;;3.40;3.10;;;12.30;99.90;;;;;;5073219;28;20194;-78
2020/12/15 04:09:50;;;;;;;3.30;3.00;;;12.40;99.90;;;;;;5073246;28;20201;-78
2020/12/15 04:12:17;;;;;;;5.20;2.90;;;12.40;99.90;;;;;;5073246;28;20194;-79
2020/12/15 04:14:43;;;;;;;2.95;2.65;;;12.40;99.90;;;;;;5073440;28;20195;-79
2020/12/15 04:17:09;;;;;;;3.53;3.28;;;12.40;99.90;;;;;;5073127;28;20205;-79
2020/12/15 04:19:36;;;;;;;3.33;3.00;;;12.30;99.90;;;;;;5073379;28;20202;-79
2020/12/15 04:22:03;;;;;;;4.80;3.95;;;12.20;99.90;;;;;;5073260;28;20254;-78
2020/12/15 04:24:29;;;;;;;4.72;2.50;;;12.30;99.90;;;;;;5072311;28;20225;-79
2020/12/15 04:26:55;;;;;;;4.95;3.33;;;12.30;99.90;;;;;;5073050;28;20205;-79
2020/12/15 04:29:22;;;;;;;3.05;2.47;;;12.30;99.90;;;;;;5073064;28;20198;-79
2020/12/15 04:31:48;;;;;;;4.47;3.00;;;12.20;99.90;;;;;;5073093;28;20198;-79
2020/12/15 04:34:14;;;;;;;3.10;2.90;;;12.30;99.90;;;;;;5072984;28;20201;-79
2020/12/15 04:36:41;;;;;;;4.35;3.45;;;12.20;99.90;;;;;;5072962;28;20217;-78
2020/12/15 04:39:08;;;;;;;3.55;3.10;;;12.20;99.90;;;;;;5072963;28;20568;-79
2020/12/15 04:41:34;;;;;;;3.35;3.05;;;12.40;99.90;;;;;;5072894;28;20198;-78
2020/12/15 04:44:01;;;;;;;3.13;2.85;;;12.20;99.90;;;;;;5072964;28;20202;-79
2020/12/15 04:46:29;;;;;;;4.45;3.60;;;12.20;99.90;;;;;;5072952;28;20206;-79
2020/12/15 04:49:04;;;;;;;2.58;2.38;;;12.10;99.90;;;;;;5072913;28;20649;-79
2020/12/15 04:51:35;;;;;;;4.20;3.80;;;12.10;99.90;;;;;;5072968;28;20209;-79
2020/12/15 04:54:03;;;;;;;3.90;3.60;;;12.20;99.90;;;;;;5072730;28;20300;-79
2020/12/15 04:56:32;;;;;;;3.45;3.20;;;12.20;99.90;;;;;;5072948;28;20217;-79
2020/12/15 04:58:59;;;;;;;3.42;3.13;;;12.30;99.90;;;;;;5072840;28;20240;-78
2020/12/15 05:01:26;;;;;;;6.10;3.65;;;12.30;99.90;;;;;;5072809;28;20194;-78
2020/12/15 05:03:53;;;;;;;4.25;3.50;;;12.30;99.90;;;;;;5072770;28;20198;-79
2020/12/15 05:06:26;;;;;;;4.75;4.25;;;12.30;99.90;;;;;;5072745;28;20653;-78
2020/12/15 05:08:54;;;;;;;3.88;2.95;;;12.40;99.90;;;;;;5072996;28;20224;-79
2020/12/15 05:11:20;;;;;;;4.55;3.60;;;12.40;99.90;;;;;;5072638;28;20206;-79
2020/12/15 05:13:48;;;;;;;5.00;3.17;;;12.40;99.90;;;;;;5071975;28;20198;-79
2020/12/15 05:16:15;;;;;;;4.00;3.42;;;12.50;99.90;;;;;;5072457;28;20198;-79
2020/12/15 05:18:41;;;;;;;5.35;3.30;;;12.50;99.90;;;;;;5072586;28;20222;-79
2020/12/15 05:21:19;;;;;;;4.10;3.40;;;12.40;99.90;;;;;;5072525;28;20551;-78
2020/12/15 05:23:46;;;;;;;3.40;3.10;;;12.40;99.90;;;;;;5072430;28;20246;-79
2020/12/15 05:26:22;;;;;;;5.72;3.63;;;12.50;99.90;;;;;;5072479;28;20293;-79
2020/12/15 05:28:59;;;;;;;4.78;3.47;;;12.60;99.90;;;;;;5072562;28;20193;-79
2020/12/15 05:31:25;;;;;;;4.07;3.63;;;12.60;99.90;;;;;;5072639;28;20198;-78
2020/12/15 05:33:52;;;;;;;4.28;3.38;;;12.60;99.90;;;;;;5072448;28;20202;-79
2020/12/15 05:36:19;;;;;;;4.57;4.18;;;12.60;99.90;;;;;;5075542;28;20198;-79
2020/12/15 05:38:45;;;;;;;4.25;3.83;;;12.70;99.90;;;;;;5075870;28;20275;-79
2020/12/15 05:41:13;;;;;;;4.03;3.72;;;12.70;99.90;;;;;;5075903;28;20198;-79
2020/12/15 05:43:40;;;;;;;5.43;3.50;;;12.70;99.90;;;;;;5076035;28;20198;-79
2020/12/15 05:46:09;;;;;;;3.35;3.05;;;12.70;99.90;;;;;;5075763;28;20199;-78
2020/12/15 05:48:36;;;;;;;8.65;3.88;;;12.80;99.90;;;;;;5076014;28;20190;-79
2020/12/15 05:51:02;;;;;;;6.10;4.88;;;12.80;99.90;;;;;;5075731;28;20202;-79
2020/12/15 05:53:28;;;;;;;8.05;3.60;;;12.80;99.90;;;;;;5075541;28;20218;-78
2020/12/15 05:55:55;;;;;;;4.38;3.95;;;12.70;99.90;;;;;;5075570;28;20230;-78
2020/12/15 05:58:21;;;;;;;4.28;3.60;;;12.70;99.90;;;;;;5075498;28;20233;-78
2020/12/15 06:00:47;;;;;;;4.53;3.70;;;12.70;99.90;;;;;;5075564;28;20209;-78
2020/12/15 06:03:14;;;;;;;4.80;4.38;;;12.60;99.90;;;;;;5075135;28;20553;-78
2020/12/15 06:05:41;;;;;;;4.13;3.65;;;12.60;99.90;;;;;;5075644;28;20529;-79
2020/12/15 06:08:07;;;;;;;4.15;3.70;;;12.60;99.90;;;;;;5075495;28;20201;-78
2020/12/15 06:10:35;;;;;;;4.35;3.97;;;12.60;99.90;;;;;;5075294;28;20528;-78
2020/12/15 06:13:02;;;;;;;4.18;3.88;;;12.60;99.90;;;;;;5075570;28;20509;-78
2020/12/15 06:15:30;;;;;;;4.15;3.70;;;12.60;99.90;;;;;;5074814;28;20194;-79
2020/12/15 06:17:58;;;;;;;3.83;3.40;;;12.70;99.90;;;;;;5074888;28;20218;-79
2020/12/15 06:20:32;;;;;;;3.85;3.55;;;12.70;99.90;;;;;;5074326;28;20198;-79
2020/12/15 06:22:59;;;;;;;4.35;3.95;;;12.70;99.90;;;;;;5074071;28;20194;-78
2020/12/15 06:25:26;;;;;;;4.32;4.03;;;12.60;99.90;;;;;;5075172;28;20528;-79
2020/12/15 06:28:01;;;;;;;8.27;3.97;;;12.80;99.90;;;;;;5075029;28;20197;-78
2020/12/15 06:30:30;;;;;;;4.13;3.72;;;12.70;99.90;;;;;;5075075;28;20202;-78
2020/12/15 06:32:59;;;;;;;6.25;4.40;;;12.80;99.90;;;;;;5075354;28;20598;-78
2020/12/15 06:35:26;;;;;;;4.60;4.20;;;12.70;99.90;;;;;;5075012;28;20649;-79
2020/12/15 06:37:52;;;;;;;4.05;3.65;;;12.80;99.90;;;;;;5074830;28;20255;-78
2020/12/15 06:40:18;;;;;;;3.80;2.95;;;12.80;99.90;;;;;;5075041;28;20607;-79
2020/12/15 06:42:49;;;;;;;5.32;3.60;;;12.90;99.90;;;;;;5075005;28;20645;-79
2020/12/15 06:45:15;;;;;;;4.00;3.70;;;12.90;99.90;;;;;;5075218;28;20195;-78
2020/12/15 06:47:42;;;;;;;3.92;3.53;;;12.90;99.90;;;;;;5074326;28;20206;-79
2020/12/15 06:50:09;;;;;;;4.40;4.00;;;12.80;99.90;;;;;;5074888;28;20202;-78
2020/12/15 06:52:37;;;;;;;4.50;3.97;;;12.90;99.90;;;;;;5074571;28;20209;-78
2020/12/15 06:55:03;;;;;;;4.25;3.85;;;12.80;99.90;;;;;;5074153;28;20222;-78
2020/12/15 06:57:32;;;;;;;5.88;4.15;;;12.90;99.90;;;;;;5073812;28;20198;-78
2020/12/15 06:59:59;;;;;;;3.70;3.42;;;12.90;99.90;;;;;;5074584;28;20202;-79
2020/12/15 07:02:30;;;;;;;4.50;4.10;;;12.90;99.90;;;;;;5074592;28;20190;-78
2020/12/15 07:05:17;;;;;;;4.72;3.63;;;12.90;99.90;;;;;;5074425;28;20202;-78
2020/12/15 07:07:49;;;;;;;4.03;3.63;;;12.90;99.90;;;;;;5074513;28;20653;-79
2020/12/15 07:10:15;;;;;;;9.43;4.18;;;12.90;99.90;;;;;;5074263;28;20194;-78
2020/12/15 07:12:42;;;;;;;5.00;3.90;;;12.90;99.90;;;;;;5073965;28;20198;-79
2020/12/15 07:15:11;;;;;;;4.05;3.70;;;12.80;99.90;;;;;;5073996;28;20190;-78
2020/12/15 07:17:41;;;;;;;4.50;4.10;;;12.70;99.90;;;;;;5073958;28;20241;-79
2020/12/15 07:20:08;;;;;;;4.05;3.70;;;12.70;99.90;;;;;;5074271;28;20558;-79
2020/12/15 07:22:34;;;;;;;4.90;4.40;;;12.70;99.90;;;;;;5074134;28;20201;-78
2020/12/15 07:25:02;;;;;;;4.38;4.03;;;12.70;99.90;;;;;;5073966;28;20215;-79
2020/12/15 07:27:29;;;;;;;4.30;3.90;;;12.80;99.90;;;;;;5073956;28;20205;-80
2020/12/15 07:29:56;;;;;;;4.88;4.03;;;12.70;99.90;;;;;;5074042;28;20194;-79
2020/12/15 07:32:22;;;;;;;5.13;4.13;;;12.80;99.90;;;;;;5073816;28;20205;-78
2020/12/15 07:34:48;;;;;;;4.15;3.75;;;12.80;99.90;;;;;;5073657;28;20205;-78
2020/12/15 07:37:18;;;;;;;4.85;4.47;;;12.70;99.90;;;;;;5073724;28;20653;-78
2020/12/15 07:39:45;;;;;;;6.15;5.65;;;12.80;99.90;;;;;;5074002;28;20198;-78
2020/12/15 07:42:12;;;;;;;4.85;4.45;;;12.70;99.90;;;;;;5073645;28;20190;-79
2020/12/15 07:44:39;;;;;;;5.70;4.43;;;12.80;99.90;;;;;;5073669;28;20198;-78
2020/12/15 07:47:05;;;;;;;10.05;4.40;;;12.80;99.90;;;;;;5073338;28;20194;-78
2020/12/15 07:49:31;;;;;;;5.38;4.88;;;12.60;99.90;;;;;;5073535;28;20198;-79
2020/12/15 07:51:57;;;;;;;6.13;5.55;;;12.60;99.90;;;;;;5073642;28;20676;-79
2020/12/15 07:54:23;;;;;;;6.57;5.05;;;12.60;99.90;;;;;;5073055;28;20234;-79
2020/12/15 07:56:52;;;;;;;4.90;4.50;;;12.60;99.90;;;;;;5073490;28;20205;-78
2020/12/15 07:59:20;;;;;;;4.75;4.20;;;12.60;99.90;;;;;;5072572;28;20218;-79
2020/12/15 08:01:46;;;;;;;5.57;5.07;;;12.60;99.90;;;;;;5073616;28;20556;-79
2020/12/15 08:04:14;;;;;;;5.20;4.75;;;12.70;99.90;;;;;;5072716;28;20194;-79
2020/12/15 08:06:42;;;;;;;5.63;5.13;;;12.70;99.90;;;;;;5073213;28;20194;-79
2020/12/15 08:09:10;;;;;;;5.50;4.97;;;12.70;99.90;;;;;;5073482;28;20205;-78
2020/12/15 08:11:37;;;;;;;5.60;5.07;;;12.60;99.90;;;;;;5073373;28;20202;-78
2020/12/15 08:14:04;;;;;;;6.63;5.30;;;12.60;99.90;;;;;;5073320;28;20197;-79
2020/12/15 08:16:32;;;;;;;6.43;4.70;;;12.50;99.90;;;;;;5073374;28;20194;-78
2020/12/15 08:18:59;;;;;;;6.00;4.63;;;12.50;99.90;;;;;;5073119;28;20222;-79
2020/12/15 08:21:37;;;;;;;5.28;4.78;;;12.50;99.90;;;;;;5073226;28;20190;-78
2020/12/15 08:24:08;;;;;;;6.15;5.45;;;12.40;99.90;;;;;;5073217;28;20210;-79
2020/12/15 08:26:35;;;;;;;6.43;5.05;;;12.50;99.90;;;;;;5073072;28;20225;-78
2020/12/15 08:29:07;;;;;;;5.65;5.15;;;12.50;99.90;;;;;;5073455;28;20202;-78
2020/12/15 08:31:36;;;;;;;4.88;4.38;;;12.50;99.90;;;;;;5072998;28;20198;-79
2020/12/15 08:34:02;;;;;;;6.30;4.47;;;12.60;99.90;;;;;;5073185;28;20198;-78
2020/12/15 08:36:28;;;;;;;11.73;5.03;;;12.70;99.90;;;;;;5073084;28;20653;-78
2020/12/15 08:38:56;;;;;;;12.18;5.55;;;12.70;99.90;;;;;;5072791;28;20225;-78
2020/12/15 08:41:22;;;;;;;8.07;5.22;;;12.80;99.90;;;;;;5073058;28;20657;-79
2020/12/15 08:43:49;;;;;;;11.98;4.72;;;12.80;99.90;;;;;;5072461;28;20202;-78
2020/12/15 08:46:17;;;;;;;5.25;4.53;;;12.80;99.90;;;;;;5072963;28;20198;-79
2020/12/15 08:48:44;;;;;;;16.20;4.25;;;12.90;99.90;;;;;;5072840;28;20198;-79
2020/12/15 08:51:16;;;;;;;5.07;4.22;;;12.80;99.90;;;;;;5072793;28;20206;-79
2020/12/15 08:53:43;;;;;;;4.22;3.83;;;12.80;99.90;;;;;;5072734;28;20300;-79
2020/12/15 08:56:14;;;;;;;3.90;3.60;;;12.80;99.90;;;;;;5072741;28;20318;-79
2020/12/15 08:58:40;;;;;;;3.95;3.65;;;12.80;99.90;;;;;;5072778;28;20313;-79
2020/12/15 09:01:07;;;;;;;4.05;3.75;;;12.80;99.90;;;;;;5072701;28;20605;-78
2020/12/15 09:03:42;;;;;;;3.45;3.15;;;12.80;99.90;;;;;;5072877;28;20237;-79
2020/12/15 09:06:09;;;;;;;4.93;3.13;;;12.70;99.90;;;;;;5072410;28;20198;-79
2020/12/15 09:08:46;;;;;;;6.05;3.05;;;12.70;99.90;;;;;;5072531;28;20190;-79
2020/12/15 09:11:13;;;;;;;4.45;4.13;;;12.70;99.90;;;;;;5075860;28;20205;-78
2020/12/15 09:13:39;;;;;;;3.70;3.40;;;12.70;99.90;;;;;;5076450;28;20198;-78
2020/12/15 09:16:05;;;;;;;3.67;3.35;;;12.90;99.90;;;;;;5076731;28;20194;-79
2020/12/15 09:18:32;;;;;;;3.42;3.20;;;12.80;99.90;;;;;;5076204;28;20214;-78
2020/12/15 09:21:09;;;;;;;3.83;3.53;;;12.80;99.90;;;;;;5076435;28;20251;-79
2020/12/15 09:23:36;;;;;;;3.65;3.35;;;12.80;99.90;;;;;;5076297;28;20663;-78
2020/12/15 09:26:02;;;;;;;3.70;3.03;;;12.80;99.90;;;;;;5076252;28;20194;-79
2020/12/15 09:28:28;;;;;;;3.42;3.00;;;12.80;99.90;;;;;;5076239;28;20203;-78
2020/12/15 09:30:55;;;;;;;3.72;3.33;;;12.80;99.90;;;;;;5076077;28;20221;-78
2020/12/15 09:33:22;;;;;;;3.83;3.53;;;12.90;99.90;;;;;;5076346;28;20590;-79
2020/12/15 09:35:48;;;;;;;3.13;2.92;;;12.90;99.90;;;;;;5075988;28;20206;-78
2020/12/15 09:38:16;;;;;;;3.20;2.90;;;13.00;99.90;;;;;;5075998;28;20237;-78
2020/12/15 09:40:42;;;;;;;2.95;2.70;;;12.90;99.90;;;;;;5075924;28;20194;-78
2020/12/15 09:43:08;;;;;;;3.35;3.05;;;12.90;99.90;;;;;;5075716;28;20205;-79
2020/12/15 09:45:34;;;;;;;3.42;3.13;;;12.90;99.90;;;;;;5076012;28;20197;-78
2020/12/15 09:48:02;;;;;;;3.08;2.78;;;13.00;99.90;;;;;;5075797;28;20213;-79
2020/12/15 09:50:29;;;;;;;3.63;3.33;;;13.00;99.90;;;;;;5075816;28;20206;-79
2020/12/15 09:52:56;;;;;;;3.47;3.17;;;13.10;99.90;;;;;;5075347;28;20685;-79
2020/12/15 09:55:23;;;;;;;3.47;3.15;;;13.10;99.90;;;;;;5075552;28;20233;-78
2020/12/15 09:57:49;;;;;;;3.58;3.30;;;13.20;99.90;;;;;;5075780;28;20194;-78
2020/12/15 10:00:16;;;;;;;3.05;2.80;;;13.20;99.90;;;;;;5075640;28;20201;-79
2020/12/15 10:02:42;;;;;;;3.50;3.20;;;13.20;99.90;;;;;;5075654;28;20551;-78
2020/12/15 10:05:10;;;;;;;4.32;2.92;;;13.10;99.90;;;;;;5075670;28;20200;-78
2020/12/15 10:07:37;;;;;;;3.88;3.40;;;13.10;99.90;;;;;;5075634;28;20560;-78
2020/12/15 10:10:03;;;;;;;3.53;3.30;;;13.10;99.90;;;;;;5075483;28;20194;-78
2020/12/15 10:12:30;;;;;;;3.45;3.15;;;13.10;99.90;;;;;;5075647;28;20676;-79
2020/12/15 10:14:57;;;;;;;3.97;3.67;;;13.10;99.90;;;;;;5075402;28;20198;-78
2020/12/15 10:17:23;;;;;;;3.22;3.03;;;13.10;99.90;;;;;;5075384;28;20194;-78
2020/12/15 10:19:49;;;;;;;3.00;2.80;;;13.10;99.90;;;;;;5075318;28;20276;-79
2020/12/15 10:22:16;;;;;;;2.97;2.78;;;13.10;99.90;;;;;;5074266;28;20289;-79
2020/12/15 10:24:43;;;;;;;3.70;2.60;;;13.10;99.90;;;;;;5075026;28;20263;-79
2020/12/15 10:27:10;;;;;;;4.00;3.55;;;13.10;99.90;;;;;;5075118;28;20267;-79
2020/12/15 10:29:38;;;;;;;3.40;3.10;;;13.10;99.90;;;;;;5075362;28;20650;-79
2020/12/15 10:32:04;;;;;;;3.80;3.50;;;13.10;99.90;;;;;;5075018;28;20205;-79
2020/12/15 10:34:31;;;;;;;5.05;2.90;;;13.10;99.90;;;;;;5075139;28;20217;-78
2020/12/15 10:36:57;;;;;;;4.18;3.78;;;13.20;99.90;;;;;;5075102;28;20198;-79
2020/12/15 10:39:23;;;;;;;4.55;3.30;;;13.30;99.90;;;;;;5074770;28;20226;-78
2020/12/15 10:41:50;;;;;;;3.30;3.00;;;13.30;99.90;;;;;;5074801;28;20202;-79
2020/12/15 10:44:16;;;;;;;4.30;3.90;;;13.40;99.90;;;;;;5074811;28;20202;-79
2020/12/15 10:46:44;;;;;;;5.18;4.57;;;13.40;99.90;;;;;;5074551;28;20195;-79
2020/12/15 10:49:11;;;;;;;4.15;3.70;;;13.40;99.90;;;;;;5074530;28;20634;-79
2020/12/15 10:51:38;;;;;;;3.85;3.50;;;13.40;99.90;;;;;;5074690;28;20194;-78
2020/12/15 10:54:04;;;;;;;4.70;3.95;;;13.40;99.90;;;;;;5074452;28;20572;-79
2020/12/15 10:56:31;;;;;;;3.72;3.45;;;13.30;99.90;;;;;;5074654;28;20821;-79
2020/12/15 10:58:57;;;;;;;4.38;3.97;;;13.30;99.90;;;;;;5074440;28;20229;-79
2020/12/15 11:01:24;;;;;;;3.65;3.35;;;13.40;99.90;;;;;;5074675;28;20198;-80
2020/12/15 11:03:51;;;;;;;3.58;3.28;;;13.40;99.90;;;;;;5074500;28;20194;-79
2020/12/15 11:06:17;;;;;;;3.88;3.58;;;13.40;99.90;;;;;;5074459;28;20250;-79
2020/12/15 11:08:43;;;;;;;4.20;3.88;;;13.40;99.90;;;;;;5074333;28;20663;-78
2020/12/15 11:11:11;;;;;;;4.32;4.03;;;13.40;99.90;;;;;;5074349;28;20191;-78
2020/12/15 11:13:37;;;;;;;4.15;3.72;;;13.40;99.90;;;;;;5074226;28;20190;-79
2020/12/15 11:16:04;;;;;;;4.25;3.85;;;13.40;99.90;;;;;;5074093;28;20190;-79
2020/12/15 11:18:30;;;;;;;5.40;3.75;;;13.40;99.90;;;;;;5074086;28;20568;-79
2020/12/15 11:20:57;;;;;;;3.83;3.53;;;13.40;99.90;;;;;;5074209;28;20194;-79
2020/12/15 11:23:23;;;;;;;3.55;3.25;;;13.40;99.90;;;;;;5074157;28;20214;-79
2020/12/15 11:25:50;;;;;;;4.60;4.07;;;13.40;99.90;;;;;;5073862;28;20197;-78
2020/12/15 11:28:16;;;;;;;5.38;3.70;;;13.50;99.90;;;;;;5073855;28;20234;-78
2020/12/15 11:30:42;;;;;;;3.63;3.33;;;13.50;99.90;;;;;;5074029;28;20268;-79
2020/12/15 11:33:08;;;;;;;4.18;3.78;;;13.50;99.90;;;;;;5073672;28;20194;-79
2020/12/15 11:35:35;;;;;;;4.30;3.90;;;13.50;99.90;;;;;;5073875;28;20217;-79
2020/12/15 11:38:02;;;;;;;3.50;3.25;;;13.60;99.90;;;;;;5073785;28;20558;-79
2020/12/15 11:40:28;;;;;;;5.00;3.83;;;13.60;99.90;;;;;;5073735;28;20194;-79
2020/12/15 11:42:56;;;;;;;3.70;3.40;;;13.70;99.90;;;;;;5073683;28;20195;-79
2020/12/15 11:45:24;;;;;;;3.70;3.40;;;13.70;99.90;;;;;;5073692;28;20202;-79
2020/12/15 11:47:51;;;;;;;3.40;3.10;;;13.60;99.90;;;;;;5073451;28;20194;-79
2020/12/15 11:50:18;;;;;;;4.85;3.85;;;13.70;99.90;;;;;;5073507;28;20723;-79
2020/12/15 11:52:44;;;;;;;3.75;3.42;;;13.70;99.90;;;;;;5073501;28;20547;-79
2020/12/15 11:55:11;;;;;;;3.45;3.15;;;13.70;99.90;;;;;;5073457;28;20225;-79
2020/12/15 11:57:37;;;;;;;4.00;3.60;;;13.90;99.90;;;;;;5073505;28;20554;-79
2020/12/15 12:00:05;;;;;;;4.28;3.63;;;13.80;99.90;;;;;;5073502;28;20299;-78
2020/12/15 12:02:32;;;;;;;3.42;3.13;;;13.80;99.90;;;;;;5073421;28;20198;-79
2020/12/15 12:04:58;;;;;;;5.35;3.58;;;13.80;99.90;;;;;;5073368;28;20195;-79
2020/12/15 12:07:24;;;;;;;3.63;3.33;;;13.80;99.90;;;;;;5073479;28;20224;-80
2020/12/15 12:09:50;;;;;;;4.15;3.30;;;13.80;99.90;;;;;;5073551;28;20201;-79
2020/12/15 12:12:18;;;;;;;3.75;3.30;;;13.80;99.90;;;;;;5073398;28;20194;-79
2020/12/15 12:14:44;;;;;;;6.35;3.45;;;13.80;99.90;;;;;;5073294;28;20190;-80
2020/12/15 12:17:10;;;;;;;4.78;3.80;;;13.80;99.90;;;;;;5073270;28;20194;-78
2020/12/15 12:19:36;;;;;;;3.42;3.10;;;13.80;99.90;;;;;;5073116;28;20267;-79
2020/12/15 12:22:03;;;;;;;7.80;3.58;;;13.80;99.90;;;;;;5073301;28;20194;-80
2020/12/15 12:24:29;;;;;;;4.07;3.67;;;13.80;99.90;;;;;;5073191;28;20214;-79
2020/12/15 12:26:56;;;;;;;2.90;2.70;;;13.80;99.90;;;;;;5073184;28;20198;-79
2020/12/15 12:29:23;;;;;;;5.38;4.05;;;13.80;99.90;;;;;;5073260;28;20671;-80
2020/12/15 12:31:50;;;;;;;4.07;3.67;;;13.70;99.90;;;;;;5073322;28;20200;-79
2020/12/15 12:34:17;;;;;;;3.80;3.50;;;13.60;99.90;;;;;;5073040;28;20201;-79
2020/12/15 12:36:43;;;;;;;4.45;4.15;;;13.50;99.90;;;;;;5073054;28;20198;-79
2020/12/15 12:39:10;;;;;;;4.43;3.95;;;13.60;99.90;;;;;;5072931;28;20228;-80
2020/12/15 12:41:36;;;;;;;4.20;3.90;;;13.60;99.90;;;;;;5072896;28;20194;-80
2020/12/15 12:44:03;;;;;;;3.47;3.17;;;13.60;99.90;;;;;;5072978;28;20198;-79
2020/12/15 12:46:30;;;;;;;3.50;3.20;;;13.50;99.90;;;;;;5076859;28;20190;-79
2020/12/15 12:48:57;;;;;;;4.38;3.97;;;13.50;99.90;;;;;;5076864;28;20198;-79